Minerva Atlantica — ZCPR7 — position and weather

sailwx.info

Track history (hours):
 
Tides and Currents Weather Stations Pressure Air Temp Water Temp Dewpoint Dewpoint Depression Visibility Wind Speed Wind Dir Waves Ship Positions

Minerva Atlantica

Last reported at 2015-Jul-07 06:30 UTC. Time now 2015-Jul-07 06:48 UTC.
Position N 54°07' E 007°27'.

Length 250 m; draft 11.6 m.

Type: Tanker. MMSI: 319161000.

Date/timePositionNaut miles runAvg speedWind from/ knotsBaromVisibWave heightAir tempDewpointWater temp
2015-Jul-07 06:30N 54°07' E 007°27'0 0.0
2015-Jul-07 05:27N 54°07' E 007°27'0 0.1
2015-Jul-07 04:33N 54°07' E 007°27'2 1.8
2015-Jul-07 03:33N 54°09' E 007°28'1010.5
2015-Jul-07 02:33N 54°18' E 007°19'1212.2
2015-Jul-07 01:33N 54°28' E 007°08'1212.4
2015-Jul-07 00:33N 54°39' E 006°57'1312.6
2015-Jul-06 23:33N 54°50' E 006°47'1212.4
2015-Jul-06 22:33N 55°01' E 006°37'1312.1
2015-Jul-06 21:31N 55°12' E 006°26'1713.9
2015-Jul-06 20:17N 55°28' E 006°16'  
2015-Jul-02 21:19N 54°04' E 004°39'7 9.0
2015-Jul-02 20:33N 53°58' E 004°35'10 9.7
2015-Jul-02 19:32N 53°49' E 004°27'10 9.9
2015-Jul-02 18:33N 53°43' E 004°14'10 9.9
2015-Jul-02 17:33N 53°37' E 004°01'1111.2
2015-Jul-02 16:33N 53°30' E 003°47'1212.5
2015-Jul-02 15:33N 53°19' E 003°37'1412.6
2015-Jul-02 14:28N 53°06' E 003°28'2512.8
2015-Jul-02 12:30N 52°41' E 003°23'1212.3
2015-Jul-02 11:31N 52°29' E 003°22'1111.9
2015-Jul-02 10:33N 52°18' E 003°29'1010.3
2015-Jul-02 09:33N 52°09' E 003°35'0 0.0
2015-Jul-02 08:33N 52°09' E 003°35'0 0.0
2015-Jul-02 07:33N 52°09' E 003°35'0 0.2
2015-Jul-02 06:21N 52°09' E 003°35'0 0.2
2015-Jul-02 05:33N 52°09' E 003°35'0 0.0
2015-Jul-02 04:33N 52°09' E 003°35'0 0.0
2015-Jul-02 03:24N 52°09' E 003°35'0 0.0
2015-Jul-02 02:30N 52°09' E 003°35'0 0.0
2015-Jul-02 01:27N 52°09' E 003°35'0 0.1
2015-Jul-02 00:33N 52°09' E 003°35'0 0.1
2015-Jul-01 23:33N 52°09' E 003°35'0 0.1
2015-Jul-01 22:30N 52°09' E 003°35'0 0.1
2015-Jul-01 21:30N 52°09' E 003°35'0 0.0
2015-Jul-01 20:27N 52°09' E 003°35'0 0.0
2015-Jul-01 19:33N 52°09' E 003°35'0 0.0
2015-Jul-01 18:24N 52°09' E 003°35'0 0.1
2015-Jul-01 17:33N 52°09' E 003°35'0 0.1
2015-Jul-01 16:24N 52°09' E 003°35'0 0.1
2015-Jul-01 15:21N 52°09' E 003°35'0 0.0
2015-Jul-01 12:33N 52°09' E 003°35'0 0.2
2015-Jul-01 11:33N 52°09' E 003°35'0 0.1
2015-Jul-01 10:30N 52°09' E 003°35'0 0.0
2015-Jul-01 09:33N 52°09' E 003°35'0 0.0
2015-Jul-01 08:33N 52°09' E 003°35'0 0.0
2015-Jul-01 07:33N 52°09' E 003°35'0 0.0
2015-Jul-01 06:33N 52°09' E 003°35'0 0.1
2015-Jul-01 05:33N 52°09' E 003°35'0 0.1
2015-Jul-01 04:33N 52°09' E 003°35'0 0.1
2015-Jul-01 03:33N 52°09' E 003°35'0 0.1
2015-Jul-01 02:33N 52°09' E 003°35'0 0.0
2015-Jul-01 01:33N 52°09' E 003°35'0 0.0
2015-Jul-01 00:33N 52°09' E 003°35'0 0.1
2015-Jun-30 23:31N 52°09' E 003°35'0 0.1
2015-Jun-30 22:28N 52°09' E 003°35'0 0.1
2015-Jun-30 21:31N 52°09' E 003°35'0 0.0
2015-Jun-30 20:28N 52°09' E 003°35'0 0.0
2015-Jun-30 19:31N 52°09' E 003°35'0 0.0
2015-Jun-30 18:19N 52°09' E 003°35'0 0.0
2015-Jun-30 17:31N 52°09' E 003°35'0 0.1
2015-Jun-30 16:28N 52°09' E 003°35'0 0.2
2015-Jun-30 15:31N 52°09' E 003°35'0 0.1
2015-Jun-30 14:31N 52°09' E 003°35'0 0.0
2015-Jun-30 13:31N 52°09' E 003°35'0 0.0
2015-Jun-30 12:31N 52°09' E 003°35'0 0.0
2015-Jun-30 11:28N 52°09' E 003°35'0 0.2
2015-Jun-30 10:28N 52°09' E 003°35'0 0.0
2015-Jun-30 09:31N 52°09' E 003°35'0 0.0
2015-Jun-30 08:28N 52°09' E 003°35'0 0.0
2015-Jun-30 07:31N 52°09' E 003°35'0 0.0
2015-Jun-30 06:31N 52°09' E 003°35'0 0.0
2015-Jun-30 05:31N 52°09' E 003°35'0 0.1
2015-Jun-30 04:31N 52°09' E 003°35'0 0.2
2015-Jun-30 03:31N 52°09' E 003°35'0 0.1
2015-Jun-30 02:31N 52°09' E 003°35'0 0.0
2015-Jun-30 01:31N 52°09' E 003°35'0 0.0
2015-Jun-30 00:31N 52°09' E 003°35'0 0.0
2015-Jun-29 23:31N 52°09' E 003°35'0 0.1
2015-Jun-29 22:31N 52°09' E 003°35'0 0.2
2015-Jun-29 21:31N 52°09' E 003°35'0 0.0
2015-Jun-29 20:31N 52°09' E 003°35'0 0.0
2015-Jun-29 19:31N 52°09' E 003°35'0 0.0
2015-Jun-29 18:31N 52°09' E 003°35'0 0.0
2015-Jun-29 17:31N 52°09' E 003°35'0 0.1
2015-Jun-29 16:31N 52°09' E 003°35'0 0.2
2015-Jun-29 15:31N 52°09' E 003°35'0 0.0
2015-Jun-29 14:31N 52°09' E 003°35'0 0.0
2015-Jun-29 13:28N 52°09' E 003°35'0 0.0
2015-Jun-29 12:31N 52°09' E 003°35'0 0.0
2015-Jun-29 11:31N 52°09' E 003°35'0 0.1
2015-Jun-29 10:31N 52°09' E 003°35'0 0.1
2015-Jun-29 09:31N 52°09' E 003°35'0 0.1
2015-Jun-29 08:31N 52°09' E 003°35'0 0.0
2015-Jun-29 07:31N 52°09' E 003°35'0 0.0
2015-Jun-29 06:28N 52°09' E 003°35'0 0.0
2015-Jun-29 05:28N 52°09' E 003°35'0 0.1
2015-Jun-29 04:28N 52°09' E 003°35'0 0.1
2015-Jun-29 03:28N 52°09' E 003°35'0 0.1
2015-Jun-29 02:25N 52°09' E 003°35'0 0.0
2015-Jun-29 01:31N 52°09' E 003°35'1 0.7
2015-Jun-29 00:33N 52°08' E 003°36'9 9.2
2015-Jun-28 23:33N 52°04' E 003°49'1010.4
2015-Jun-28 22:33N 51°59' E 004°04'1 1.0
2015-Jun-28 21:32N 51°58' E 004°04'0 0.0
2015-Jun-28 20:32N 51°58' E 004°04'0 0.0
2015-Jun-28 19:32N 51°58' E 004°04'0 0.0
2015-Jun-28 18:32N 51°58' E 004°04'0 0.0
2015-Jun-28 17:32N 51°58' E 004°04'0 0.0
2015-Jun-28 16:32N 51°58' E 004°04'0 0.0
2015-Jun-28 15:32N 51°58' E 004°04'0 0.0
2015-Jun-28 14:32N 51°58' E 004°04'0 0.0
2015-Jun-28 13:29N 51°58' E 004°04'0 0.0
2015-Jun-28 12:32N 51°58' E 004°04'0 0.0
2015-Jun-28 11:32N 51°58' E 004°04'0 0.0
2015-Jun-28 10:32N 51°58' E 004°04'0 0.0
2015-Jun-28 09:32N 51°58' E 004°04'0 0.0
2015-Jun-28 08:32N 51°58' E 004°04'0 0.0
2015-Jun-28 07:32N 51°58' E 004°04'0 0.0
2015-Jun-28 06:32N 51°58' E 004°04'0 0.0
2015-Jun-28 05:32N 51°58' E 004°04'0 0.0
2015-Jun-28 04:29N 51°58' E 004°04'0 0.0
2015-Jun-28 03:32N 51°58' E 004°04'0 0.0
2015-Jun-28 02:32N 51°58' E 004°04'0 0.0
2015-Jun-28 01:32N 51°58' E 004°04'1 1.3
2015-Jun-28 00:33N 51°58' E 004°06'5 4.7
2015-Jun-27 23:33N 51°55' E 004°12'0 0.0
2015-Jun-27 22:32N 51°55' E 004°12'0 0.0
2015-Jun-27 21:32N 51°55' E 004°12'0 0.0
2015-Jun-27 20:32N 51°55' E 004°12'0 0.0
2015-Jun-27 19:32N 51°55' E 004°12'0 0.0
2015-Jun-27 18:32N 51°55' E 004°12'0 0.0
2015-Jun-27 17:32N 51°55' E 004°12'0 0.0
2015-Jun-27 16:26N 51°55' E 004°12'0 0.0
2015-Jun-27 15:29N 51°55' E 004°12'0 0.0
2015-Jun-27 14:32N 51°55' E 004°12'0 0.0
2015-Jun-27 13:32N 51°55' E 004°12'0 0.0
2015-Jun-27 12:29N 51°55' E 004°12'0 0.0
2015-Jun-27 11:32N 51°55' E 004°12'0 0.0
2015-Jun-27 10:32N 51°55' E 004°12'0 0.0
2015-Jun-27 09:32N 51°55' E 004°12'0 0.0
2015-Jun-27 08:32N 51°55' E 004°12'0 0.0
2015-Jun-27 07:32N 51°55' E 004°12'0 0.0
2015-Jun-27 06:32N 51°55' E 004°12'  
Track history (hours):
 
Tides and Currents Weather Stations Pressure Air Temp Water Temp Dewpoint Dewpoint Depression Visibility Wind Speed Wind Dir Waves Ship Positions

Minerva Atlantica

Last reported at 2015-Jul-07 06:30 UTC. Time now 2015-Jul-07 06:48 UTC.
Position N 54°07' E 007°27'.

Length 250 m; draft 11.6 m.

Type: Tanker. MMSI: 319161000.

Date/timePositionNaut miles runAvg speedWind from/ knotsBaromVisibWave heightAir tempDewpointWater temp
2015-Jul-07 06:30N 54°07' E 007°27'0 0.0
2015-Jul-07 05:27N 54°07' E 007°27'0 0.1
2015-Jul-07 04:33N 54°07' E 007°27'2 1.8
2015-Jul-07 03:33N 54°09' E 007°28'1010.5
2015-Jul-07 02:33N 54°18' E 007°19'1212.2
2015-Jul-07 01:33N 54°28' E 007°08'1212.4
2015-Jul-07 00:33N 54°39' E 006°57'1312.6
2015-Jul-06 23:33N 54°50' E 006°47'1212.4
2015-Jul-06 22:33N 55°01' E 006°37'1312.1
2015-Jul-06 21:31N 55°12' E 006°26'1713.9
2015-Jul-06 20:17N 55°28' E 006°16'  
2015-Jul-02 21:19N 54°04' E 004°39'7 9.0
2015-Jul-02 20:33N 53°58' E 004°35'10 9.7
2015-Jul-02 19:32N 53°49' E 004°27'10 9.9
2015-Jul-02 18:33N 53°43' E 004°14'10 9.9
2015-Jul-02 17:33N 53°37' E 004°01'1111.2
2015-Jul-02 16:33N 53°30' E 003°47'1212.5
2015-Jul-02 15:33N 53°19' E 003°37'1412.6
2015-Jul-02 14:28N 53°06' E 003°28'2512.8
2015-Jul-02 12:30N 52°41' E 003°23'1212.3
2015-Jul-02 11:31N 52°29' E 003°22'1111.9
2015-Jul-02 10:33N 52°18' E 003°29'1010.3
2015-Jul-02 09:33N 52°09' E 003°35'0 0.0
2015-Jul-02 08:33N 52°09' E 003°35'0 0.0
2015-Jul-02 07:33N 52°09' E 003°35'0 0.2
2015-Jul-02 06:21N 52°09' E 003°35'0 0.2
2015-Jul-02 05:33N 52°09' E 003°35'0 0.0
2015-Jul-02 04:33N 52°09' E 003°35'0 0.0
2015-Jul-02 03:24N 52°09' E 003°35'0 0.0
2015-Jul-02 02:30N 52°09' E 003°35'0 0.0
2015-Jul-02 01:27N 52°09' E 003°35'0 0.1
2015-Jul-02 00:33N 52°09' E 003°35'0 0.1
2015-Jul-01 23:33N 52°09' E 003°35'0 0.1
2015-Jul-01 22:30N 52°09' E 003°35'0 0.1
2015-Jul-01 21:30N 52°09' E 003°35'0 0.0
2015-Jul-01 20:27N 52°09' E 003°35'0 0.0
2015-Jul-01 19:33N 52°09' E 003°35'0 0.0
2015-Jul-01 18:24N 52°09' E 003°35'0 0.1
2015-Jul-01 17:33N 52°09' E 003°35'0 0.1
2015-Jul-01 16:24N 52°09' E 003°35'0 0.1
2015-Jul-01 15:21N 52°09' E 003°35'0 0.0
2015-Jul-01 12:33N 52°09' E 003°35'0 0.2
2015-Jul-01 11:33N 52°09' E 003°35'0 0.1
2015-Jul-01 10:30N 52°09' E 003°35'0 0.0
2015-Jul-01 09:33N 52°09' E 003°35'0 0.0
2015-Jul-01 08:33N 52°09' E 003°35'0 0.0
2015-Jul-01 07:33N 52°09' E 003°35'0 0.0
2015-Jul-01 06:33N 52°09' E 003°35'0 0.1
2015-Jul-01 05:33N 52°09' E 003°35'0 0.1
2015-Jul-01 04:33N 52°09' E 003°35'0 0.1
2015-Jul-01 03:33N 52°09' E 003°35'0 0.1
2015-Jul-01 02:33N 52°09' E 003°35'0 0.0
2015-Jul-01 01:33N 52°09' E 003°35'0 0.0
2015-Jul-01 00:33N 52°09' E 003°35'0 0.1
2015-Jun-30 23:31N 52°09' E 003°35'0 0.1
2015-Jun-30 22:28N 52°09' E 003°35'0 0.1
2015-Jun-30 21:31N 52°09' E 003°35'0 0.0
2015-Jun-30 20:28N 52°09' E 003°35'0 0.0
2015-Jun-30 19:31N 52°09' E 003°35'0 0.0
2015-Jun-30 18:19N 52°09' E 003°35'0 0.0
2015-Jun-30 17:31N 52°09' E 003°35'0 0.1
2015-Jun-30 16:28N 52°09' E 003°35'0 0.2
2015-Jun-30 15:31N 52°09' E 003°35'0 0.1
2015-Jun-30 14:31N 52°09' E 003°35'0 0.0
2015-Jun-30 13:31N 52°09' E 003°35'0 0.0
2015-Jun-30 12:31N 52°09' E 003°35'0 0.0
2015-Jun-30 11:28N 52°09' E 003°35'0 0.2
2015-Jun-30 10:28N 52°09' E 003°35'0 0.0
2015-Jun-30 09:31N 52°09' E 003°35'0 0.0
2015-Jun-30 08:28N 52°09' E 003°35'0 0.0
2015-Jun-30 07:31N 52°09' E 003°35'0 0.0
2015-Jun-30 06:31N 52°09' E 003°35'0 0.0
2015-Jun-30 05:31N 52°09' E 003°35'0 0.1
2015-Jun-30 04:31N 52°09' E 003°35'0 0.2
2015-Jun-30 03:31N 52°09' E 003°35'0 0.1
2015-Jun-30 02:31N 52°09' E 003°35'0 0.0
2015-Jun-30 01:31N 52°09' E 003°35'0 0.0
2015-Jun-30 00:31N 52°09' E 003°35'0 0.0
2015-Jun-29 23:31N 52°09' E 003°35'0 0.1
2015-Jun-29 22:31N 52°09' E 003°35'0 0.2
2015-Jun-29 21:31N 52°09' E 003°35'0 0.0
2015-Jun-29 20:31N 52°09' E 003°35'0 0.0
2015-Jun-29 19:31N 52°09' E 003°35'0 0.0
2015-Jun-29 18:31N 52°09' E 003°35'0 0.0
2015-Jun-29 17:31N 52°09' E 003°35'0 0.1
2015-Jun-29 16:31N 52°09' E 003°35'0 0.2
2015-Jun-29 15:31N 52°09' E 003°35'0 0.0
2015-Jun-29 14:31N 52°09' E 003°35'0 0.0
2015-Jun-29 13:28N 52°09' E 003°35'0 0.0
2015-Jun-29 12:31N 52°09' E 003°35'0 0.0
2015-Jun-29 11:31N 52°09' E 003°35'0 0.1
2015-Jun-29 10:31N 52°09' E 003°35'0 0.1
2015-Jun-29 09:31N 52°09' E 003°35'0 0.1
2015-Jun-29 08:31N 52°09' E 003°35'0 0.0
2015-Jun-29 07:31N 52°09' E 003°35'0 0.0
2015-Jun-29 06:28N 52°09' E 003°35'0 0.0
2015-Jun-29 05:28N 52°09' E 003°35'0 0.1
2015-Jun-29 04:28N 52°09' E 003°35'0 0.1
2015-Jun-29 03:28N 52°09' E 003°35'0 0.1
2015-Jun-29 02:25N 52°09' E 003°35'0 0.0
2015-Jun-29 01:31N 52°09' E 003°35'1 0.7
2015-Jun-29 00:33N 52°08' E 003°36'9 9.2
2015-Jun-28 23:33N 52°04' E 003°49'1010.4
2015-Jun-28 22:33N 51°59' E 004°04'1 1.0
2015-Jun-28 21:32N 51°58' E 004°04'0 0.0
2015-Jun-28 20:32N 51°58' E 004°04'0 0.0
2015-Jun-28 19:32N 51°58' E 004°04'0 0.0
2015-Jun-28 18:32N 51°58' E 004°04'0 0.0
2015-Jun-28 17:32N 51°58' E 004°04'0 0.0
2015-Jun-28 16:32N 51°58' E 004°04'0 0.0
2015-Jun-28 15:32N 51°58' E 004°04'0 0.0
2015-Jun-28 14:32N 51°58' E 004°04'0 0.0
2015-Jun-28 13:29N 51°58' E 004°04'0 0.0
2015-Jun-28 12:32N 51°58' E 004°04'0 0.0
2015-Jun-28 11:32N 51°58' E 004°04'0 0.0
2015-Jun-28 10:32N 51°58' E 004°04'0 0.0
2015-Jun-28 09:32N 51°58' E 004°04'0 0.0
2015-Jun-28 08:32N 51°58' E 004°04'0 0.0
2015-Jun-28 07:32N 51°58' E 004°04'0 0.0
2015-Jun-28 06:32N 51°58' E 004°04'0 0.0
2015-Jun-28 05:32N 51°58' E 004°04'0 0.0
2015-Jun-28 04:29N 51°58' E 004°04'0 0.0
2015-Jun-28 03:32N 51°58' E 004°04'0 0.0
2015-Jun-28 02:32N 51°58' E 004°04'0 0.0
2015-Jun-28 01:32N 51°58' E 004°04'1 1.3
2015-Jun-28 00:33N 51°58' E 004°06'5 4.7
2015-Jun-27 23:33N 51°55' E 004°12'0 0.0
2015-Jun-27 22:32N 51°55' E 004°12'0 0.0
2015-Jun-27 21:32N 51°55' E 004°12'0 0.0
2015-Jun-27 20:32N 51°55' E 004°12'0 0.0
2015-Jun-27 19:32N 51°55' E 004°12'0 0.0
2015-Jun-27 18:32N 51°55' E 004°12'0 0.0
2015-Jun-27 17:32N 51°55' E 004°12'0 0.0
2015-Jun-27 16:26N 51°55' E 004°12'0 0.0
2015-Jun-27 15:29N 51°55' E 004°12'0 0.0
2015-Jun-27 14:32N 51°55' E 004°12'0 0.0
2015-Jun-27 13:32N 51°55' E 004°12'0 0.0
2015-Jun-27 12:29N 51°55' E 004°12'0 0.0
2015-Jun-27 11:32N 51°55' E 004°12'0 0.0
2015-Jun-27 10:32N 51°55' E 004°12'0 0.0
2015-Jun-27 09:32N 51°55' E 004°12'0 0.0
2015-Jun-27 08:32N 51°55' E 004°12'0 0.0
2015-Jun-27 07:32N 51°55' E 004°12'0 0.0
2015-Jun-27 06:32N 51°55' E 004°12'  

Dump ship's entire track history